CheckWX is a tool to help pilots better visualize weather data.  It is not intended as a substitute for an official pre-flight weather briefing.

15:08:43 UTC

KWLD METAR
Strother Field Airport
Winfield/Arkansas City, Kansas, USA
Current

1 hour ago

KWLD 211354Z AUTO 00000KT 8SM CLR M08/M10 A3068 RMK AO2 SLP407 T10831100
Observed
Feb-21 @ 13:54 UTC
Visibility
8 SM
Flight Rules
VFR
Cloud Levels
  • Clear skies
Temperature
-8°C / 18°F
Dewpoint
-10°C / 14°F
Humidity
86%
Altimeter
30.68" Hg
Pressure
1038.92 hPa
Previous

2 hours ago

KWLD 211254Z AUTO 17003KT 8SM CLR M10/M12 A3066 RMK AO2 SLP403 I1000 T11001122
Observed
Feb-21 @ 12:54 UTC
Wind
  • 170° at 3 KTS
Visibility
8 SM
Flight Rules
VFR
Cloud Levels
  • Clear skies
Temperature
-10°C / 14°F
Dewpoint
-12°C / 10°F
Humidity
85%
Altimeter
30.66" Hg
Pressure
1038.32 hPa
Previous

3 hours ago

KWLD 211154Z AUTO 00000KT 10SM CLR M09/M12 A3067 RMK AO2 SLP402 I1000 I6000 T10941117 11067 21106 56014
Observed
Feb-21 @ 11:54 UTC
Visibility
10 SM
Flight Rules
VFR
Cloud Levels
  • Clear skies
Temperature
-9°C / 16°F
Dewpoint
-12°C / 10°F
Humidity
79%
Altimeter
30.67" Hg
Pressure
1038.62 hPa